Airfield :
LOGIN :

Register | Disclaimer

   EN    FR    IT 

 










Legend :    VFR   Marginal VFR   IFR   Intensive IFR   Very Intensive IFR
Visi :
Ceiling :
>= 8 km
>= 3000ft
5 to 8 km
1000 to 3000 ft
1500m to 5 km
500 to 1000 ft
800 to 1500m
200 to 500 ft
< 800m
< 200 ft
Symbols :   Thunderstorms  Fog  Heavy snow  Heavy precipitations  Wind > 20 kt
SIGMETs :     Misc.  Thunderstorms  Icing  Turbulence  Mountain Waves  Volcanic Ashes







- Airport Elevation : 640 ft
- IATA code : AOC


EDAC - Altenburg-Nobitz

CURRENT METAR :
  • 221220Z 30011KT 260V330 9999 -RA BKN023 11/08 Q1020

EXPIRED METARs :
  • 221150Z 26012KT 220V280 9999 BKN021 12/08 Q1020
  • 221120Z 27012KT 9999 BKN020 12/08 Q1020
  • 221050Z 25013KT 9999 -RA BKN018 OVC031 10/07 Q1020
  • 221020Z 26012KT 230V290 9999 -RA FEW014 SCT020 BKN033 10/08 Q1020

TAF TAF EDAC
Valid from the 22 at 12:00 until the 22 at 21:00 UTC


221100Z 2212/2221 28013KT 9999 BKN030
PROB30
TEMPO 2213/2217 28015G25KT TSRA BKN030CB
BECMG 2216/2219 28008KT
No reported NOTAMs for that airfield.



MET'MAP, your aeronautical weather chart ! - Copyright ORBIFLY December 2007 - Disclaimer

ORBIFLY MET'MAP TEAM :

Programming & Development : Alexandra Zaïnal
Concept & Development : Baudouin d'Aumeries
Co-Development & Prog : Marc-Olivier Méhu
Technical & hardware support : Manuel Goepfert

Contact : metmap@orbifly.com




SOURCES & CREDITS :

   NOAA